sensor_id;sensor_type;location;lat;lon;timestamp;P1;durP1;ratioP1;P2;durP2;ratioP2
80910;SDS011;70359;51.420;7.032;2023-09-19T00:00:30;2.2;;;1.1;;
80910;SDS011;70359;51.420;7.032;2023-09-19T00:02:57;2;;;1;;
80910;SDS011;70359;51.420;7.032;2023-09-19T00:05:20;2;;;1;;
80910;SDS011;70359;51.420;7.032;2023-09-19T00:07:49;2;;;1;;
80910;SDS011;70359;51.420;7.032;2023-09-19T00:10:11;1.6;;;1.1;;
80910;SDS011;70359;51.420;7.032;2023-09-19T00:12:35;1.6;;;1.1;;
80910;SDS011;70359;51.420;7.032;2023-09-19T00:15:00;6.5;;;0.9;;
80910;SDS011;70359;51.420;7.032;2023-09-19T00:17:30;6.5;;;0.9;;
80910;SDS011;70359;51.420;7.032;2023-09-19T00:19:55;1.6;;;1.1;;
80910;SDS011;70359;51.420;7.032;2023-09-19T00:22:15;1.6;;;1.1;;
80910;SDS011;70359;51.420;7.032;2023-09-19T00:24:41;2.5;;;1;;
80910;SDS011;70359;51.420;7.032;2023-09-19T00:27:06;2.5;;;1;;
80910;SDS011;70359;51.420;7.032;2023-09-19T00:29:30;1.4;;;0.9;;
80910;SDS011;70359;51.420;7.032;2023-09-19T00:31:56;1.4;;;0.9;;
80910;SDS011;70359;51.420;7.032;2023-09-19T00:34:21;2.9;;;1.1;;
80910;SDS011;70359;51.420;7.032;2023-09-19T00:36:50;2.9;;;1.1;;
80910;SDS011;70359;51.420;7.032;2023-09-19T00:39:11;3.2;;;1.2;;
80910;SDS011;70359;51.420;7.032;2023-09-19T00:41:36;3.2;;;1.2;;
80910;SDS011;70359;51.420;7.032;2023-09-19T00:44:01;1.2;;;1.1;;
80910;SDS011;70359;51.420;7.032;2023-09-19T00:46:26;1.2;;;1.1;;
80910;SDS011;70359;51.420;7.032;2023-09-19T00:48:55;1.9;;;1.3;;
80910;SDS011;70359;51.420;7.032;2023-09-19T00:51:16;1.9;;;1.3;;
80910;SDS011;70359;51.420;7.032;2023-09-19T00:53:41;1.3;;;0.8;;
80910;SDS011;70359;51.420;7.032;2023-09-19T00:56:06;1.3;;;0.8;;
80910;SDS011;70359;51.420;7.032;2023-09-19T00:58:31;1.8;;;1.2;;
80910;SDS011;70359;51.420;7.032;2023-09-19T01:01:00;1.8;;;1.2;;
80910;SDS011;70359;51.420;7.032;2023-09-19T01:03:26;0.9;;;0.9;;
80910;SDS011;70359;51.420;7.032;2023-09-19T01:05:46;0.9;;;0.9;;
80910;SDS011;70359;51.420;7.032;2023-09-19T01:08:15;1.5;;;1.2;;
80910;SDS011;70359;51.420;7.032;2023-09-19T01:10:36;1.5;;;1.2;;
80910;SDS011;70359;51.420;7.032;2023-09-19T01:13:05;2.3;;;1.2;;
80910;SDS011;70359;51.420;7.032;2023-09-19T01:15:32;2.3;;;1.2;;
80910;SDS011;70359;51.420;7.032;2023-09-19T01:17:53;2.3;;;1.2;;
80910;SDS011;70359;51.420;7.032;2023-09-19T01:20:36;1.6;;;1.2;;
80910;SDS011;70359;51.420;7.032;2023-09-19T01:22:46;1.6;;;1.2;;
80910;SDS011;70359;51.420;7.032;2023-09-19T01:25:26;1.5;;;1.1;;
80910;SDS011;70359;51.420;7.032;2023-09-19T01:27:44;1.5;;;1.1;;
80910;SDS011;70359;51.420;7.032;2023-09-19T01:30:08;1.4;;;1;;
80910;SDS011;70359;51.420;7.032;2023-09-19T01:32:21;1.4;;;1;;
80910;SDS011;70359;51.420;7.032;2023-09-19T01:34:50;2.5;;;1;;
80910;SDS011;70359;51.420;7.032;2023-09-19T01:37:11;2.5;;;1;;
80910;SDS011;70359;51.420;7.032;2023-09-19T01:39:40;1.8;;;1.3;;
80910;SDS011;70359;51.420;7.032;2023-09-19T01:42:06;1.8;;;1.3;;
80910;SDS011;70359;51.420;7.032;2023-09-19T01:44:31;2.4;;;1;;
80910;SDS011;70359;51.420;7.032;2023-09-19T01:46:54;2.4;;;1;;
80910;SDS011;70359;51.420;7.032;2023-09-19T01:49:22;2.6;;;1.2;;
80910;SDS011;70359;51.420;7.032;2023-09-19T01:51:45;2.6;;;1.2;;
80910;SDS011;70359;51.420;7.032;2023-09-19T01:54:09;1.4;;;1.1;;
80910;SDS011;70359;51.420;7.032;2023-09-19T01:56:34;1.4;;;1.1;;
80910;SDS011;70359;51.420;7.032;2023-09-19T01:58:59;1.7;;;1.1;;
80910;SDS011;70359;51.420;7.032;2023-09-19T02:01:22;1.7;;;1.1;;
80910;SDS011;70359;51.420;7.032;2023-09-19T02:03:47;1.6;;;1.2;;
80910;SDS011;70359;51.420;7.032;2023-09-19T02:06:17;1.6;;;1.2;;
80910;SDS011;70359;51.420;7.032;2023-09-19T02:08:40;1.2;;;1.1;;
80910;SDS011;70359;51.420;7.032;2023-09-19T02:11:01;1.2;;;1.1;;
80910;SDS011;70359;51.420;7.032;2023-09-19T02:13:26;2.7;;;1.1;;
80910;SDS011;70359;51.420;7.032;2023-09-19T02:15:55;2.7;;;1.1;;
80910;SDS011;70359;51.420;7.032;2023-09-19T02:18:16;1.6;;;1;;
80910;SDS011;70359;51.420;7.032;2023-09-19T02:20:41;1.6;;;1;;
80910;SDS011;70359;51.420;7.032;2023-09-19T02:23:07;1.2;;;1.1;;
80910;SDS011;70359;51.420;7.032;2023-09-19T02:25:31;1.2;;;1.1;;
80910;SDS011;70359;51.420;7.032;2023-09-19T02:27:56;1.2;;;1.1;;
80910;SDS011;70359;51.420;7.032;2023-09-19T02:30:21;3.2;;;1.2;;
80910;SDS011;70359;51.420;7.032;2023-09-19T02:32:46;3.2;;;1.2;;
80910;SDS011;70359;51.420;7.032;2023-09-19T02:35:15;1.3;;;1.1;;
80910;SDS011;70359;51.420;7.032;2023-09-19T02:37:36;1.3;;;1.1;;
80910;SDS011;70359;51.420;7.032;2023-09-19T02:40:01;2.1;;;1.1;;
80910;SDS011;70359;51.420;7.032;2023-09-19T02:42:26;2.1;;;1.1;;
80910;SDS011;70359;51.420;7.032;2023-09-19T02:44:51;1.8;;;1.1;;
80910;SDS011;70359;51.420;7.032;2023-09-19T02:47:20;1.8;;;1.1;;
80910;SDS011;70359;51.420;7.032;2023-09-19T02:49:41;2;;;1.1;;
80910;SDS011;70359;51.420;7.032;2023-09-19T02:52:10;2;;;1.1;;
80910;SDS011;70359;51.420;7.032;2023-09-19T02:54:35;2.3;;;1.1;;
80910;SDS011;70359;51.420;7.032;2023-09-19T02:57:00;2.3;;;1.1;;
80910;SDS011;70359;51.420;7.032;2023-09-19T02:59:21;2.2;;;1.1;;
80910;SDS011;70359;51.420;7.032;2023-09-19T03:01:50;2.2;;;1.1;;
80910;SDS011;70359;51.420;7.032;2023-09-19T03:04:15;1;;;0.9;;
80910;SDS011;70359;51.420;7.032;2023-09-19T03:06:40;1;;;0.9;;
80910;SDS011;70359;51.420;7.032;2023-09-19T03:09:01;1.4;;;1.2;;
80910;SDS011;70359;51.420;7.032;2023-09-19T03:11:30;1.4;;;1.2;;
80910;SDS011;70359;51.420;7.032;2023-09-19T03:13:54;1.3;;;0.8;;
80910;SDS011;70359;51.420;7.032;2023-09-19T03:16:20;1.3;;;0.8;;
80910;SDS011;70359;51.420;7.032;2023-09-19T03:18:45;1.9;;;1.1;;
80910;SDS011;70359;51.420;7.032;2023-09-19T03:21:10;1.9;;;1.1;;
80910;SDS011;70359;51.420;7.032;2023-09-19T03:23:31;1.7;;;1.2;;
80910;SDS011;70359;51.420;7.032;2023-09-19T03:25:56;1.7;;;1.2;;
80910;SDS011;70359;51.420;7.032;2023-09-19T03:28:21;1.9;;;1.1;;
80910;SDS011;70359;51.420;7.032;2023-09-19T03:30:50;1.9;;;1.1;;
80910;SDS011;70359;51.420;7.032;2023-09-19T03:33:12;6.3;;;1.1;;
80910;SDS011;70359;51.420;7.032;2023-09-19T03:35:36;6.3;;;1.1;;
80910;SDS011;70359;51.420;7.032;2023-09-19T03:38:01;6.3;;;1.1;;
80910;SDS011;70359;51.420;7.032;2023-09-19T03:40:26;1.4;;;1.1;;
80910;SDS011;70359;51.420;7.032;2023-09-19T03:42:51;1.4;;;1.1;;
80910;SDS011;70359;51.420;7.032;2023-09-19T03:45:16;1.3;;;1;;
80910;SDS011;70359;51.420;7.032;2023-09-19T03:47:41;1.3;;;1;;
80910;SDS011;70359;51.420;7.032;2023-09-19T03:50:07;1.7;;;1.1;;
80910;SDS011;70359;51.420;7.032;2023-09-19T03:52:31;1.7;;;1.1;;
80910;SDS011;70359;51.420;7.032;2023-09-19T03:54:56;4;;;1.2;;
80910;SDS011;70359;51.420;7.032;2023-09-19T03:57:21;4;;;1.2;;
80910;SDS011;70359;51.420;7.032;2023-09-19T03:59:46;1;;;0.8;;
80910;SDS011;70359;51.420;7.032;2023-09-19T04:02:11;1;;;0.8;;
80910;SDS011;70359;51.420;7.032;2023-09-19T04:04:40;1.8;;;1.2;;
80910;SDS011;70359;51.420;7.032;2023-09-19T04:07:01;1.8;;;1.2;;
80910;SDS011;70359;51.420;7.032;2023-09-19T04:09:26;1.7;;;1.2;;
80910;SDS011;70359;51.420;7.032;2023-09-19T04:11:51;1.7;;;1.2;;
80910;SDS011;70359;51.420;7.032;2023-09-19T04:14:16;1.3;;;1;;
80910;SDS011;70359;51.420;7.032;2023-09-19T04:16:41;1.3;;;1;;
80910;SDS011;70359;51.420;7.032;2023-09-19T04:19:06;2.5;;;1;;
80910;SDS011;70359;51.420;7.032;2023-09-19T04:21:35;2.5;;;1;;
80910;SDS011;70359;51.420;7.032;2023-09-19T04:23:56;1.8;;;1.2;;
80910;SDS011;70359;51.420;7.032;2023-09-19T04:26:21;1.8;;;1.2;;
80910;SDS011;70359;51.420;7.032;2023-09-19T04:28:46;1.5;;;1.1;;
80910;SDS011;70359;51.420;7.032;2023-09-19T04:31:15;1.5;;;1.1;;
80910;SDS011;70359;51.420;7.032;2023-09-19T04:33:36;2.7;;;1.3;;
80910;SDS011;70359;51.420;7.032;2023-09-19T04:36:01;2.7;;;1.3;;
80910;SDS011;70359;51.420;7.032;2023-09-19T04:38:30;3.3;;;1.2;;
80910;SDS011;70359;51.420;7.032;2023-09-19T04:41:00;3.3;;;1.2;;
80910;SDS011;70359;51.420;7.032;2023-09-19T04:43:16;2.5;;;1;;
80910;SDS011;70359;51.420;7.032;2023-09-19T04:45:45;2.5;;;1;;
80910;SDS011;70359;51.420;7.032;2023-09-19T04:48:06;2.5;;;1;;
80910;SDS011;70359;51.420;7.032;2023-09-19T04:50:35;1.4;;;1.1;;
80910;SDS011;70359;51.420;7.032;2023-09-19T04:53:00;1.4;;;1.1;;
80910;SDS011;70359;51.420;7.032;2023-09-19T04:55:21;2.3;;;1.1;;
80910;SDS011;70359;51.420;7.032;2023-09-19T04:57:48;2.3;;;1.1;;
80910;SDS011;70359;51.420;7.032;2023-09-19T05:00:12;1.3;;;1;;
80910;SDS011;70359;51.420;7.032;2023-09-19T05:02:36;1.3;;;1;;
80910;SDS011;70359;51.420;7.032;2023-09-19T05:05:01;2.4;;;1.1;;
80910;SDS011;70359;51.420;7.032;2023-09-19T05:07:30;2.4;;;1.1;;
80910;SDS011;70359;51.420;7.032;2023-09-19T05:09:51;3.1;;;1.3;;
80910;SDS011;70359;51.420;7.032;2023-09-19T05:12:16;3.1;;;1.3;;
80910;SDS011;70359;51.420;7.032;2023-09-19T05:14:45;2.9;;;1.3;;
80910;SDS011;70359;51.420;7.032;2023-09-19T05:17:06;2.9;;;1.3;;
80910;SDS011;70359;51.420;7.032;2023-09-19T05:19:31;3.8;;;1.3;;
80910;SDS011;70359;51.420;7.032;2023-09-19T05:21:56;3.8;;;1.3;;
80910;SDS011;70359;51.420;7.032;2023-09-19T05:24:21;2;;;1.2;;
80910;SDS011;70359;51.420;7.032;2023-09-19T05:26:46;2;;;1.2;;
80910;SDS011;70359;51.420;7.032;2023-09-19T05:29:11;1.2;;;1.1;;
80910;SDS011;70359;51.420;7.032;2023-09-19T05:31:36;1.2;;;1.1;;
80910;SDS011;70359;51.420;7.032;2023-09-19T05:34:05;1.7;;;1;;
80910;SDS011;70359;51.420;7.032;2023-09-19T05:36:30;1.7;;;1;;
80910;SDS011;70359;51.420;7.032;2023-09-19T05:38:51;2.2;;;1.3;;
80910;SDS011;70359;51.420;7.032;2023-09-19T05:41:16;2.2;;;1.3;;
80910;SDS011;70359;51.420;7.032;2023-09-19T05:43:41;2;;;1.2;;
80910;SDS011;70359;51.420;7.032;2023-09-19T05:46:06;2;;;1.2;;
80910;SDS011;70359;51.420;7.032;2023-09-19T05:48:31;1.9;;;1.2;;
80910;SDS011;70359;51.420;7.032;2023-09-19T05:50:56;1.9;;;1.2;;
80910;SDS011;70359;51.420;7.032;2023-09-19T05:53:21;1.3;;;1;;
80910;SDS011;70359;51.420;7.032;2023-09-19T05:55:50;1.3;;;1;;
80910;SDS011;70359;51.420;7.032;2023-09-19T05:58:11;1.3;;;1;;
80910;SDS011;70359;51.420;7.032;2023-09-19T06:00:36;4;;;0.9;;
80910;SDS011;70359;51.420;7.032;2023-09-19T06:03:05;4;;;0.9;;
80910;SDS011;70359;51.420;7.032;2023-09-19T06:05:27;1.9;;;1.3;;
80910;SDS011;70359;51.420;7.032;2023-09-19T06:07:51;1.9;;;1.3;;
80910;SDS011;70359;51.420;7.032;2023-09-19T06:10:20;2.2;;;1.4;;
80910;SDS011;70359;51.420;7.032;2023-09-19T06:12:42;2.2;;;1.4;;
80910;SDS011;70359;51.420;7.032;2023-09-19T06:15:07;1.9;;;1.4;;
80910;SDS011;70359;51.420;7.032;2023-09-19T06:17:31;1.9;;;1.4;;
80910;SDS011;70359;51.420;7.032;2023-09-19T06:19:56;2.3;;;1.2;;
80910;SDS011;70359;51.420;7.032;2023-09-19T06:22:21;2.3;;;1.2;;
80910;SDS011;70359;51.420;7.032;2023-09-19T06:24:46;2;;;1.4;;
80910;SDS011;70359;51.420;7.032;2023-09-19T06:27:11;2;;;1.4;;
80910;SDS011;70359;51.420;7.032;2023-09-19T06:29:36;2.5;;;1.1;;
80910;SDS011;70359;51.420;7.032;2023-09-19T06:32:01;2.5;;;1.1;;
80910;SDS011;70359;51.420;7.032;2023-09-19T06:34:26;1.9;;;1.2;;
80910;SDS011;70359;51.420;7.032;2023-09-19T06:36:51;1.9;;;1.2;;
80910;SDS011;70359;51.420;7.032;2023-09-19T06:39:16;4;;;1.3;;
80910;SDS011;70359;51.420;7.032;2023-09-19T06:41:41;4;;;1.3;;
80910;SDS011;70359;51.420;7.032;2023-09-19T06:44:10;3.2;;;1.3;;
80910;SDS011;70359;51.420;7.032;2023-09-19T06:46:31;3.2;;;1.3;;
80910;SDS011;70359;51.420;7.032;2023-09-19T06:48:56;2.4;;;1.4;;
80910;SDS011;70359;51.420;7.032;2023-09-19T06:51:22;2.4;;;1.4;;
80910;SDS011;70359;51.420;7.032;2023-09-19T06:53:46;2.1;;;1.3;;
80910;SDS011;70359;51.420;7.032;2023-09-19T06:56:15;2.1;;;1.3;;
80910;SDS011;70359;51.420;7.032;2023-09-19T06:58:40;2.7;;;1.4;;
80910;SDS011;70359;51.420;7.032;2023-09-19T07:01:01;2.7;;;1.4;;
80910;SDS011;70359;51.420;7.032;2023-09-19T07:03:26;3.2;;;1.4;;
80910;SDS011;70359;51.420;7.032;2023-09-19T07:05:55;3.2;;;1.4;;
80910;SDS011;70359;51.420;7.032;2023-09-19T07:08:16;3.2;;;1.4;;
80910;SDS011;70359;51.420;7.032;2023-09-19T07:10:42;9.9;;;1.7;;
80910;SDS011;70359;51.420;7.032;2023-09-19T07:13:07;9.9;;;1.7;;
80910;SDS011;70359;51.420;7.032;2023-09-19T07:15:33;1.5;;;1.1;;
80910;SDS011;70359;51.420;7.032;2023-09-19T07:17:56;1.5;;;1.1;;
80910;SDS011;70359;51.420;7.032;2023-09-19T07:20:22;2;;;1.2;;
80910;SDS011;70359;51.420;7.032;2023-09-19T07:22:50;2;;;1.2;;
80910;SDS011;70359;51.420;7.032;2023-09-19T07:25:12;1.4;;;1.1;;
80910;SDS011;70359;51.420;7.032;2023-09-19T07:27:36;1.4;;;1.1;;
80910;SDS011;70359;51.420;7.032;2023-09-19T07:30:01;2.1;;;1.3;;
80910;SDS011;70359;51.420;7.032;2023-09-19T07:32:27;2.1;;;1.3;;
80910;SDS011;70359;51.420;7.032;2023-09-19T07:34:51;3.5;;;1.6;;
80910;SDS011;70359;51.420;7.032;2023-09-19T07:37:17;3.5;;;1.6;;
80910;SDS011;70359;51.420;7.032;2023-09-19T07:39:42;4;;;1.4;;
80910;SDS011;70359;51.420;7.032;2023-09-19T07:42:07;4;;;1.4;;
80910;SDS011;70359;51.420;7.032;2023-09-19T07:44:32;2.6;;;1.4;;
80910;SDS011;70359;51.420;7.032;2023-09-19T07:46:57;2.6;;;1.4;;
80910;SDS011;70359;51.420;7.032;2023-09-19T07:49:22;5.1;;;1.4;;
80910;SDS011;70359;51.420;7.032;2023-09-19T07:51:47;5.1;;;1.4;;
80910;SDS011;70359;51.420;7.032;2023-09-19T07:54:12;2.4;;;1;;
80910;SDS011;70359;51.420;7.032;2023-09-19T07:56:41;2.4;;;1;;
80910;SDS011;70359;51.420;7.032;2023-09-19T07:59:02;3.3;;;1.3;;
80910;SDS011;70359;51.420;7.032;2023-09-19T08:01:27;3.3;;;1.3;;
80910;SDS011;70359;51.420;7.032;2023-09-19T08:03:55;6;;;1.2;;
80910;SDS011;70359;51.420;7.032;2023-09-19T08:06:20;6;;;1.2;;
80910;SDS011;70359;51.420;7.032;2023-09-19T08:08:46;1.2;;;1.1;;
80910;SDS011;70359;51.420;7.032;2023-09-19T08:11:07;1.2;;;1.1;;
80910;SDS011;70359;51.420;7.032;2023-09-19T08:13:32;2.2;;;1.2;;
80910;SDS011;70359;51.420;7.032;2023-09-19T08:16:00;2.2;;;1.2;;
80910;SDS011;70359;51.420;7.032;2023-09-19T08:18:26;2.2;;;1.2;;
80910;SDS011;70359;51.420;7.032;2023-09-19T08:20:49;1.7;;;1;;
80910;SDS011;70359;51.420;7.032;2023-09-19T08:23:12;1.7;;;1;;
80910;SDS011;70359;51.420;7.032;2023-09-19T08:25:37;3.1;;;1.4;;
80910;SDS011;70359;51.420;7.032;2023-09-19T08:28:02;3.1;;;1.4;;
80910;SDS011;70359;51.420;7.032;2023-09-19T08:30:27;2.1;;;1.1;;
80910;SDS011;70359;51.420;7.032;2023-09-19T08:32:56;2.1;;;1.1;;
80910;SDS011;70359;51.420;7.032;2023-09-19T08:35:17;2.8;;;1.5;;
80910;SDS011;70359;51.420;7.032;2023-09-19T08:37:46;2.8;;;1.5;;
80910;SDS011;70359;51.420;7.032;2023-09-19T08:40:11;1.6;;;1;;
80910;SDS011;70359;51.420;7.032;2023-09-19T08:42:52;1.6;;;1;;
80910;SDS011;70359;51.420;7.032;2023-09-19T08:44:57;3.6;;;1.5;;
80910;SDS011;70359;51.420;7.032;2023-09-19T08:47:34;3.6;;;1.5;;
80910;SDS011;70359;51.420;7.032;2023-09-19T08:49:53;1.5;;;1;;
80910;SDS011;70359;51.420;7.032;2023-09-19T08:52:20;1.5;;;1;;
80910;SDS011;70359;51.420;7.032;2023-09-19T08:54:39;1.9;;;1.1;;
80910;SDS011;70359;51.420;7.032;2023-09-19T08:57:06;1.9;;;1.1;;
80910;SDS011;70359;51.420;7.032;2023-09-19T08:59:27;1.6;;;1.1;;
80910;SDS011;70359;51.420;7.032;2023-09-19T09:01:52;1.6;;;1.1;;
80910;SDS011;70359;51.420;7.032;2023-09-19T09:04:21;5.2;;;1.2;;
80910;SDS011;70359;51.420;7.032;2023-09-19T09:06:42;5.2;;;1.2;;
80910;SDS011;70359;51.420;7.032;2023-09-19T09:09:07;5.7;;;1.9;;
80910;SDS011;70359;51.420;7.032;2023-09-19T09:11:34;5.7;;;1.9;;
80910;SDS011;70359;51.420;7.032;2023-09-19T09:13:57;2.1;;;1.1;;
80910;SDS011;70359;51.420;7.032;2023-09-19T09:16:22;2.1;;;1.1;;
80910;SDS011;70359;51.420;7.032;2023-09-19T09:18:47;1.9;;;1.2;;
80910;SDS011;70359;51.420;7.032;2023-09-19T09:21:12;1.9;;;1.2;;
80910;SDS011;70359;51.420;7.032;2023-09-19T09:23:41;3;;;1.4;;
80910;SDS011;70359;51.420;7.032;2023-09-19T09:26:02;3;;;1.4;;
80910;SDS011;70359;51.420;7.032;2023-09-19T09:28:27;3;;;1.4;;
80910;SDS011;70359;51.420;7.032;2023-09-19T09:30:52;1.4;;;1.3;;
80910;SDS011;70359;51.420;7.032;2023-09-19T09:33:17;1.4;;;1.3;;
80910;SDS011;70359;51.420;7.032;2023-09-19T09:35:51;2.7;;;1.4;;
80910;SDS011;70359;51.420;7.032;2023-09-19T09:38:07;2.7;;;1.4;;
80910;SDS011;70359;51.420;7.032;2023-09-19T09:40:51;2.3;;;1.5;;
80910;SDS011;70359;51.420;7.032;2023-09-19T09:43:01;2.3;;;1.5;;
80910;SDS011;70359;51.420;7.032;2023-09-19T09:45:23;1.5;;;1.3;;
80910;SDS011;70359;51.420;7.032;2023-09-19T09:47:48;1.5;;;1.3;;
80910;SDS011;70359;51.420;7.032;2023-09-19T09:50:12;3.1;;;1.4;;
80910;SDS011;70359;51.420;7.032;2023-09-19T09:52:47;3.1;;;1.4;;
80910;SDS011;70359;51.420;7.032;2023-09-19T09:55:03;2.2;;;1;;
80910;SDS011;70359;51.420;7.032;2023-09-19T09:57:27;2.2;;;1;;
80910;SDS011;70359;51.420;7.032;2023-09-19T09:59:53;3.2;;;1.6;;
80910;SDS011;70359;51.420;7.032;2023-09-19T10:02:18;3.2;;;1.6;;
80910;SDS011;70359;51.420;7.032;2023-09-19T10:04:46;1.7;;;1;;
80910;SDS011;70359;51.420;7.032;2023-09-19T10:07:11;1.7;;;1;;
80910;SDS011;70359;51.420;7.032;2023-09-19T10:09:49;2.1;;;1.3;;
80910;SDS011;70359;51.420;7.032;2023-09-19T10:12:03;2.1;;;1.3;;
80910;SDS011;70359;51.420;7.032;2023-09-19T10:14:25;1.9;;;1.2;;
80910;SDS011;70359;51.420;7.032;2023-09-19T10:16:49;1.9;;;1.2;;
80910;SDS011;70359;51.420;7.032;2023-09-19T10:19:20;1.7;;;1.2;;
80910;SDS011;70359;51.420;7.032;2023-09-19T10:21:37;1.7;;;1.2;;
80910;SDS011;70359;51.420;7.032;2023-09-19T10:24:03;1.2;;;1.1;;
80910;SDS011;70359;51.420;7.032;2023-09-19T10:26:27;1.2;;;1.1;;
80910;SDS011;70359;51.420;7.032;2023-09-19T10:28:57;2.6;;;1.4;;
80910;SDS011;70359;51.420;7.032;2023-09-19T10:31:17;2.6;;;1.4;;
80910;SDS011;70359;51.420;7.032;2023-09-19T10:33:43;2.1;;;1.4;;
80910;SDS011;70359;51.420;7.032;2023-09-19T10:36:14;2.1;;;1.4;;
80910;SDS011;70359;51.420;7.032;2023-09-19T10:38:33;2.1;;;1.4;;
80910;SDS011;70359;51.420;7.032;2023-09-19T10:40:57;1.5;;;1.1;;
80910;SDS011;70359;51.420;7.032;2023-09-19T10:43:29;1.5;;;1.1;;
80910;SDS011;70359;51.420;7.032;2023-09-19T10:45:48;1.9;;;1.5;;
80910;SDS011;70359;51.420;7.032;2023-09-19T10:48:12;1.9;;;1.5;;
80910;SDS011;70359;51.420;7.032;2023-09-19T10:50:44;2.6;;;1.4;;
80910;SDS011;70359;51.420;7.032;2023-09-19T10:53:05;2.6;;;1.4;;
80910;SDS011;70359;51.420;7.032;2023-09-19T10:55:28;2.2;;;1.4;;
80910;SDS011;70359;51.420;7.032;2023-09-19T10:57:52;2.2;;;1.4;;
80910;SDS011;70359;51.420;7.032;2023-09-19T11:00:17;2.1;;;1.4;;
80910;SDS011;70359;51.420;7.032;2023-09-19T11:02:42;2.1;;;1.4;;
80910;SDS011;70359;51.420;7.032;2023-09-19T11:05:14;1.5;;;1.2;;
80910;SDS011;70359;51.420;7.032;2023-09-19T11:10:09;3.7;;;1.3;;
80910;SDS011;70359;51.420;7.032;2023-09-19T11:12:53;3.7;;;1.3;;
80910;SDS011;70359;51.420;7.032;2023-09-19T11:14:58;1.7;;;1.1;;
80910;SDS011;70359;51.420;7.032;2023-09-19T11:17:35;1.7;;;1.1;;
80910;SDS011;70359;51.420;7.032;2023-09-19T11:22:09;3.2;;;2;;
80910;SDS011;70359;51.420;7.032;2023-09-19T11:24:34;3.2;;;1.8;;
80910;SDS011;70359;51.420;7.032;2023-09-19T11:27:16;3.2;;;1.8;;
80910;SDS011;70359;51.420;7.032;2023-09-19T11:29:31;2.7;;;1.4;;
80910;SDS011;70359;51.420;7.032;2023-09-19T11:31:53;2.7;;;1.4;;
80910;SDS011;70359;51.420;7.032;2023-09-19T11:36:39;2.1;;;1.3;;
80910;SDS011;70359;51.420;7.032;2023-09-19T11:39:04;2.1;;;1.2;;
80910;SDS011;70359;51.420;7.032;2023-09-19T11:41:41;2.1;;;1.2;;
80910;SDS011;70359;51.420;7.032;2023-09-19T11:46:19;2;;;1;;
80910;SDS011;70359;51.420;7.032;2023-09-19T11:48:47;2;;;1.5;;
80910;SDS011;70359;51.420;7.032;2023-09-19T11:51:20;2;;;1.5;;
80910;SDS011;70359;51.420;7.032;2023-09-19T11:53:39;2;;;1.5;;
80910;SDS011;70359;51.420;7.032;2023-09-19T11:55:59;1.5;;;1.3;;
80910;SDS011;70359;51.420;7.032;2023-09-19T11:58:28;1.5;;;1.3;;
80910;SDS011;70359;51.420;7.032;2023-09-19T12:00:55;1.3;;;1;;
80910;SDS011;70359;51.420;7.032;2023-09-19T12:03:15;1.3;;;1;;
80910;SDS011;70359;51.420;7.032;2023-09-19T12:05:39;1.2;;;1.1;;
80910;SDS011;70359;51.420;7.032;2023-09-19T12:08:05;1.2;;;1.1;;
80910;SDS011;70359;51.420;7.032;2023-09-19T12:10:29;1.8;;;1.2;;
80910;SDS011;70359;51.420;7.032;2023-09-19T12:12:54;1.8;;;1.2;;
80910;SDS011;70359;51.420;7.032;2023-09-19T12:15:22;3.7;;;1.2;;
80910;SDS011;70359;51.420;7.032;2023-09-19T12:17:46;3.7;;;1.2;;
80910;SDS011;70359;51.420;7.032;2023-09-19T12:20:10;3.4;;;1.3;;
80910;SDS011;70359;51.420;7.032;2023-09-19T12:22:43;3.4;;;1.3;;
80910;SDS011;70359;51.420;7.032;2023-09-19T12:25:05;7.1;;;1.7;;
80910;SDS011;70359;51.420;7.032;2023-09-19T12:27:24;7.1;;;1.7;;
80910;SDS011;70359;51.420;7.032;2023-09-19T12:29:49;1.1;;;0.9;;
80910;SDS011;70359;51.420;7.032;2023-09-19T12:32:15;1.1;;;0.9;;
80910;SDS011;70359;51.420;7.032;2023-09-19T12:34:39;2.2;;;1.1;;
80910;SDS011;70359;51.420;7.032;2023-09-19T12:37:09;2.2;;;1.1;;
80910;SDS011;70359;51.420;7.032;2023-09-19T12:39:29;3;;;1.1;;
80910;SDS011;70359;51.420;7.032;2023-09-19T12:41:54;3;;;1.1;;
80910;SDS011;70359;51.420;7.032;2023-09-19T12:44:19;3;;;1;;
80910;SDS011;70359;51.420;7.032;2023-09-19T12:46:44;3;;;1;;
80910;SDS011;70359;51.420;7.032;2023-09-19T12:49:19;2.8;;;1;;
80910;SDS011;70359;51.420;7.032;2023-09-19T12:51:38;2.8;;;1;;
80910;SDS011;70359;51.420;7.032;2023-09-19T12:54:00;1.2;;;0.9;;
80910;SDS011;70359;51.420;7.032;2023-09-19T12:56:24;1.2;;;0.9;;
80910;SDS011;70359;51.420;7.032;2023-09-19T12:58:53;1.4;;;1;;
80910;SDS011;70359;51.420;7.032;2023-09-19T13:01:17;1.4;;;1;;
80910;SDS011;70359;51.420;7.032;2023-09-19T13:03:39;1.4;;;1;;
80910;SDS011;70359;51.420;7.032;2023-09-19T13:06:04;0.8;;;0.8;;
80910;SDS011;70359;51.420;7.032;2023-09-19T13:08:31;0.8;;;0.8;;
80910;SDS011;70359;51.420;7.032;2023-09-19T13:11:08;0.9;;;0.8;;
80910;SDS011;70359;51.420;7.032;2023-09-19T13:13:32;0.9;;;0.8;;
80910;SDS011;70359;51.420;7.032;2023-09-19T13:15:55;1.4;;;1;;
80910;SDS011;70359;51.420;7.032;2023-09-19T13:18:14;1.4;;;1;;
80910;SDS011;70359;51.420;7.032;2023-09-19T13:20:34;1;;;0.8;;
80910;SDS011;70359;51.420;7.032;2023-09-19T13:23:05;1;;;0.8;;
80910;SDS011;70359;51.420;7.032;2023-09-19T13:25:25;7.3;;;1.4;;
80910;SDS011;70359;51.420;7.032;2023-09-19T13:27:51;7.3;;;1.4;;
80910;SDS011;70359;51.420;7.032;2023-09-19T13:30:15;0.9;;;0.8;;
80910;SDS011;70359;51.420;7.032;2023-09-19T13:32:39;0.9;;;0.8;;
80910;SDS011;70359;51.420;7.032;2023-09-19T13:35:05;1;;;0.9;;
80910;SDS011;70359;51.420;7.032;2023-09-19T13:37:29;1;;;0.9;;
80910;SDS011;70359;51.420;7.032;2023-09-19T13:39:54;1.7;;;0.8;;
80910;SDS011;70359;51.420;7.032;2023-09-19T13:42:23;1.7;;;0.8;;
80910;SDS011;70359;51.420;7.032;2023-09-19T13:44:44;1.6;;;0.9;;
80910;SDS011;70359;51.420;7.032;2023-09-19T13:47:09;1.6;;;0.9;;
80910;SDS011;70359;51.420;7.032;2023-09-19T13:49:34;0.8;;;0.7;;
80910;SDS011;70359;51.420;7.032;2023-09-19T13:51:59;0.8;;;0.7;;
80910;SDS011;70359;51.420;7.032;2023-09-19T13:54:24;0.7;;;0.6;;
80910;SDS011;70359;51.420;7.032;2023-09-19T13:56:49;0.7;;;0.6;;
80910;SDS011;70359;51.420;7.032;2023-09-19T13:59:14;0.7;;;0.7;;
80910;SDS011;70359;51.420;7.032;2023-09-19T14:01:39;0.7;;;0.7;;
80910;SDS011;70359;51.420;7.032;2023-09-19T14:04:05;1.2;;;0.8;;
80910;SDS011;70359;51.420;7.032;2023-09-19T14:06:29;1.2;;;0.8;;
80910;SDS011;70359;51.420;7.032;2023-09-19T14:08:54;1.2;;;0.8;;
80910;SDS011;70359;51.420;7.032;2023-09-19T14:11:19;0.8;;;0.8;;
80910;SDS011;70359;51.420;7.032;2023-09-19T14:13:48;0.8;;;0.8;;
80910;SDS011;70359;51.420;7.032;2023-09-19T14:16:09;0.6;;;0.6;;
80910;SDS011;70359;51.420;7.032;2023-09-19T14:18:35;0.6;;;0.6;;
80910;SDS011;70359;51.420;7.032;2023-09-19T14:21:01;0.8;;;0.7;;
80910;SDS011;70359;51.420;7.032;2023-09-19T14:23:24;0.8;;;0.7;;
80910;SDS011;70359;51.420;7.032;2023-09-19T14:25:50;2.4;;;0.9;;
80910;SDS011;70359;51.420;7.032;2023-09-19T14:28:14;2.4;;;0.9;;
80910;SDS011;70359;51.420;7.032;2023-09-19T14:30:39;1.3;;;0.7;;
80910;SDS011;70359;51.420;7.032;2023-09-19T14:33:04;1.3;;;0.7;;
80910;SDS011;70359;51.420;7.032;2023-09-19T14:35:29;1.1;;;0.9;;
80910;SDS011;70359;51.420;7.032;2023-09-19T14:37:54;1.1;;;0.9;;
80910;SDS011;70359;51.420;7.032;2023-09-19T14:40:24;1.5;;;0.9;;
80910;SDS011;70359;51.420;7.032;2023-09-19T14:42:45;1.5;;;0.9;;
80910;SDS011;70359;51.420;7.032;2023-09-19T14:45:10;0.9;;;0.7;;
80910;SDS011;70359;51.420;7.032;2023-09-19T14:47:38;0.9;;;0.7;;
80910;SDS011;70359;51.420;7.032;2023-09-19T14:50:04;1;;;0.7;;
80910;SDS011;70359;51.420;7.032;2023-09-19T14:52:25;1;;;0.7;;
80910;SDS011;70359;51.420;7.032;2023-09-19T14:54:50;0.8;;;0.6;;
80910;SDS011;70359;51.420;7.032;2023-09-19T14:57:15;0.8;;;0.6;;
80910;SDS011;70359;51.420;7.032;2023-09-19T14:59:40;0.9;;;0.6;;
80910;SDS011;70359;51.420;7.032;2023-09-19T15:02:05;0.9;;;0.6;;
80910;SDS011;70359;51.420;7.032;2023-09-19T15:04:34;0.7;;;0.6;;
80910;SDS011;70359;51.420;7.032;2023-09-19T15:06:55;0.7;;;0.6;;
80910;SDS011;70359;51.420;7.032;2023-09-19T15:09:20;1.1;;;0.8;;
80910;SDS011;70359;51.420;7.032;2023-09-19T15:11:45;1.1;;;0.8;;
80910;SDS011;70359;51.420;7.032;2023-09-19T15:14:10;0.7;;;0.6;;
80910;SDS011;70359;51.420;7.032;2023-09-19T15:16:39;0.7;;;0.6;;